createdAt,value
2023-03-21T00:01:53.705Z,51.55
2023-03-21T00:04:22.797Z,45.78
2023-03-21T00:06:49.773Z,46.83
2023-03-21T00:09:17.339Z,43.63
2023-03-21T00:11:44.349Z,51.20
2023-03-21T00:14:14.710Z,55.88
2023-03-21T00:16:42.414Z,57.35
2023-03-21T00:19:10.470Z,57.58
2023-03-21T00:24:25.985Z,55.08
2023-03-21T00:26:53.759Z,62.05
2023-03-21T00:29:21.146Z,62.20
2023-03-21T00:31:48.106Z,64.00
2023-03-21T00:34:16.604Z,51.17
2023-03-21T00:36:47.005Z,45.83
2023-03-21T00:39:14.400Z,51.53
2023-03-21T00:41:43.302Z,48.15
2023-03-21T00:46:51.564Z,48.65
2023-03-21T00:49:24.390Z,49.40
2023-03-21T00:51:51.902Z,48.92
2023-03-21T00:54:19.632Z,49.35
2023-03-21T00:56:46.526Z,48.17
2023-03-21T00:59:14.040Z,50.33
2023-03-21T01:01:41.407Z,45.92
2023-03-21T01:04:13.740Z,47.20
2023-03-21T01:06:42.367Z,46.90
2023-03-21T01:09:18.610Z,41.08
2023-03-21T01:11:46.413Z,45.45
2023-03-21T01:14:22.468Z,51.42
2023-03-21T01:16:54.194Z,44.65
2023-03-21T01:19:40.694Z,41.40
2023-03-21T01:22:14.003Z,42.95
2023-03-21T01:24:52.506Z,44.70
2023-03-21T01:27:20.902Z,44.38
2023-03-21T01:29:48.057Z,46.13
2023-03-21T01:32:14.904Z,43.72
2023-03-21T01:34:42.160Z,55.78
2023-03-21T01:37:09.460Z,49.88
2023-03-21T01:39:36.813Z,47.97
2023-03-21T01:42:03.963Z,47.03
2023-03-21T01:44:31.713Z,50.20
2023-03-21T01:47:10.395Z,47.53
2023-03-21T01:49:48.615Z,48.30
2023-03-21T01:52:35.371Z,51.83
2023-03-21T01:55:07.142Z,49.35
2023-03-21T01:57:49.455Z,51.15
2023-03-21T02:00:29.581Z,47.42
2023-03-21T02:03:09.554Z,47.33
2023-03-21T02:05:42.013Z,49.53
2023-03-21T02:08:08.906Z,46.75
2023-03-21T02:10:36.858Z,48.20
2023-03-21T02:13:09.846Z,48.72
2023-03-21T02:15:44.867Z,48.50
2023-03-21T02:18:27.075Z,47.33
2023-03-21T02:21:48.031Z,52.60
2023-03-21T02:24:14.881Z,48.95
2023-03-21T02:27:06.722Z,48.75
2023-03-21T02:29:36.535Z,50.50
2023-03-21T02:32:31.444Z,47.97
2023-03-21T02:35:51.866Z,51.95
2023-03-21T02:38:20.698Z,47.30
2023-03-21T02:41:00.351Z,45.80
2023-03-21T02:43:37.317Z,51.28
2023-03-21T02:46:24.255Z,49.30
2023-03-21T02:49:08.106Z,48.15
2023-03-21T02:51:36.975Z,50.35
2023-03-21T02:54:29.972Z,49.75
2023-03-21T02:56:58.290Z,51.65
2023-03-21T02:59:27.733Z,53.67
2023-03-21T03:01:56.438Z,55.47
2023-03-21T03:04:28.226Z,51.75
2023-03-21T03:07:14.497Z,54.20
2023-03-21T03:10:02.089Z,54.50
2023-03-21T03:12:41.806Z,55.70
2023-03-21T03:15:29.393Z,56.55
2023-03-21T03:17:56.247Z,56.45
2023-03-21T03:20:52.888Z,64.57
2023-03-21T03:23:46.380Z,69.20
2023-03-21T03:26:34.126Z,63.40
2023-03-21T03:29:06.870Z,65.05
2023-03-21T03:31:39.706Z,65.82
2023-03-21T03:34:12.644Z,68.57
2023-03-21T03:36:47.673Z,63.80
2023-03-21T03:39:16.576Z,67.97
2023-03-21T03:42:10.265Z,67.60
2023-03-21T03:44:42.110Z,72.72
2023-03-21T03:47:32.247Z,73.07
2023-03-21T03:50:09.407Z,79.47
2023-03-21T03:53:09.914Z,68.18
2023-03-21T03:55:44.814Z,72.75
2023-03-21T03:58:21.664Z,70.50
2023-03-21T04:00:51.244Z,69.15
2023-03-21T04:03:18.819Z,73.90
2023-03-21T04:05:48.495Z,75.40
2023-03-21T04:08:17.555Z,71.97
2023-03-21T04:10:44.705Z,77.57
2023-03-21T04:13:11.869Z,75.68
2023-03-21T04:15:38.761Z,75.32
2023-03-21T04:18:06.088Z,72.20
2023-03-21T04:20:37.227Z,81.10
2023-03-21T04:23:06.182Z,77.35
2023-03-21T04:25:42.281Z,75.88
2023-03-21T04:28:14.945Z,76.32
2023-03-21T04:30:51.881Z,75.93
2023-03-21T04:33:26.466Z,77.78
2023-03-21T04:35:56.746Z,74.05
2023-03-21T04:38:24.447Z,77.88
2023-03-21T04:40:55.079Z,84.40
2023-03-21T04:43:24.056Z,77.93
2023-03-21T04:45:52.224Z,83.47
2023-03-21T04:48:19.919Z,80.05
2023-03-21T04:50:47.123Z,79.45
2023-03-21T04:53:14.237Z,78.60
2023-03-21T04:55:41.130Z,81.70
2023-03-21T04:58:08.628Z,84.60
2023-03-21T05:00:39.181Z,82.40
2023-03-21T05:03:09.338Z,81.78
2023-03-21T05:05:39.641Z,79.22
2023-03-21T05:08:07.117Z,84.65
2023-03-21T05:10:34.426Z,83.47
2023-03-21T05:13:01.633Z,90.38
2023-03-21T05:15:28.741Z,91.50
2023-03-21T05:17:58.687Z,87.95
2023-03-21T05:20:26.291Z,87.85
2023-03-21T05:22:53.521Z,87.82
2023-03-21T05:25:34.086Z,84.40
2023-03-21T05:28:02.251Z,92.45
2023-03-21T05:30:29.722Z,92.40
2023-03-21T05:32:57.520Z,94.78
2023-03-21T05:35:26.786Z,98.38
2023-03-21T05:37:54.132Z,95.95
2023-03-21T05:40:21.484Z,94.78
2023-03-21T05:42:49.125Z,100.45
2023-03-21T05:45:16.158Z,102.85
2023-03-21T05:47:43.415Z,113.40
2023-03-21T05:50:11.495Z,114.38
2023-03-21T05:52:39.249Z,112.63
2023-03-21T05:55:06.509Z,113.95
2023-03-21T05:57:39.188Z,117.90
2023-03-21T06:00:08.450Z,111.60
2023-03-21T06:02:35.859Z,117.90
2023-03-21T06:05:02.888Z,115.32
2023-03-21T06:07:30.651Z,112.75
2023-03-21T06:09:57.558Z,118.00
2023-03-21T06:12:24.831Z,108.60
2023-03-21T06:14:53.062Z,116.93
2023-03-21T06:17:20.635Z,115.43
2023-03-21T06:19:47.582Z,118.93
2023-03-21T06:22:14.985Z,113.50
2023-03-21T06:24:41.980Z,114.47
2023-03-21T06:27:09.351Z,108.68
2023-03-21T06:29:36.263Z,108.78
2023-03-21T06:32:03.654Z,113.78
2023-03-21T06:34:30.984Z,120.35
2023-03-21T06:36:58.636Z,121.60
2023-03-21T06:39:26.337Z,119.90
2023-03-21T06:41:53.528Z,120.32
2023-03-21T06:44:22.160Z,116.93
2023-03-21T06:46:49.393Z,108.53
2023-03-21T06:49:16.389Z,108.05
2023-03-21T06:51:44.049Z,113.72
2023-03-21T06:54:11.473Z,112.22
2023-03-21T06:56:38.818Z,107.78
2023-03-21T06:59:05.812Z,114.07
2023-03-21T07:01:33.017Z,108.25
2023-03-21T07:03:59.939Z,100.97
2023-03-21T07:06:27.383Z,102.32
2023-03-21T07:08:55.741Z,105.20
2023-03-21T07:11:24.221Z,99.95
2023-03-21T07:13:51.720Z,99.72
2023-03-21T07:16:21.791Z,99.45
2023-03-21T07:18:48.829Z,89.00
2023-03-21T07:21:16.231Z,89.60
2023-03-21T07:23:43.326Z,77.18
2023-03-21T07:26:10.530Z,73.82
2023-03-21T07:28:37.395Z,83.07
2023-03-21T07:31:06.981Z,82.72
2023-03-21T07:36:02.706Z,78.65
2023-03-21T07:38:31.103Z,79.88
2023-03-21T07:41:00.846Z,71.53
2023-03-21T07:43:28.116Z,65.18
2023-03-21T07:45:59.516Z,89.03
2023-03-21T07:48:26.905Z,105.18
2023-03-21T07:50:54.270Z,219.00
2023-03-21T07:53:21.574Z,86.32
2023-03-21T07:55:53.840Z,66.47
2023-03-21T07:58:20.833Z,59.03
2023-03-21T08:00:49.004Z,58.17
2023-03-21T08:03:16.104Z,62.53
2023-03-21T08:05:44.344Z,61.88
2023-03-21T08:08:11.393Z,86.00
2023-03-21T08:10:39.078Z,167.20
2023-03-21T08:13:05.981Z,96.20
2023-03-21T08:15:33.305Z,128.35
2023-03-21T08:18:00.742Z,165.82
2023-03-21T08:20:28.092Z,78.07
2023-03-21T08:22:55.097Z,57.78
2023-03-21T08:25:23.122Z,55.25
2023-03-21T08:27:51.402Z,57.67
2023-03-21T08:30:21.750Z,54.92
2023-03-21T08:32:49.253Z,56.72
2023-03-21T08:35:18.792Z,54.20
2023-03-21T08:37:45.863Z,53.88
2023-03-21T08:40:17.031Z,56.42
2023-03-21T08:42:46.564Z,65.85
2023-03-21T08:45:15.386Z,48.95
2023-03-21T08:47:43.089Z,45.15
2023-03-21T08:50:14.533Z,44.65
2023-03-21T08:52:41.896Z,46.47
2023-03-21T08:55:09.751Z,46.00
2023-03-21T08:57:37.134Z,45.15
2023-03-21T09:00:14.439Z,44.00
2023-03-21T09:02:42.120Z,50.78
2023-03-21T09:05:12.092Z,50.42
2023-03-21T09:07:40.968Z,52.85
2023-03-21T09:10:21.141Z,57.13
2023-03-21T09:12:51.225Z,44.58
2023-03-21T09:15:22.031Z,47.88
2023-03-21T09:17:53.012Z,53.72
2023-03-21T09:20:26.407Z,29.95
2023-03-21T09:22:54.390Z,31.85
2023-03-21T09:25:21.890Z,29.52
2023-03-21T09:27:48.829Z,36.13
2023-03-21T09:30:19.163Z,55.03
2023-03-21T09:32:48.645Z,59.08
2023-03-21T09:35:18.935Z,50.28
2023-03-21T09:37:49.117Z,41.28
2023-03-21T09:40:30.843Z,36.35
2023-03-21T09:43:26.306Z,29.38
2023-03-21T09:46:10.322Z,29.60
2023-03-21T09:48:59.873Z,27.00
2023-03-21T09:51:33.528Z,28.17
2023-03-21T09:54:07.711Z,24.42
2023-03-21T09:56:40.675Z,26.17
2023-03-21T09:59:10.625Z,24.00
2023-03-21T10:01:45.619Z,27.80
2023-03-21T10:04:18.830Z,21.23
2023-03-21T10:06:58.054Z,22.80
2023-03-21T10:09:27.370Z,21.40
2023-03-21T10:12:07.492Z,22.95
2023-03-21T10:14:57.109Z,22.83
2023-03-21T10:17:37.721Z,21.75
2023-03-21T10:20:26.471Z,19.85
2023-03-21T10:22:56.885Z,22.20
2023-03-21T10:25:31.090Z,27.52
2023-03-21T10:27:59.749Z,24.08
2023-03-21T10:30:36.939Z,23.37
2023-03-21T10:33:09.744Z,22.60
2023-03-21T10:35:38.394Z,21.13
2023-03-21T10:38:07.171Z,24.83
2023-03-21T10:40:35.448Z,23.27
2023-03-21T10:43:38.011Z,21.65
2023-03-21T10:46:27.427Z,19.75
2023-03-21T10:48:54.891Z,25.48
2023-03-21T10:51:26.282Z,23.50
2023-03-21T10:54:00.113Z,21.05
2023-03-21T10:56:30.418Z,22.85
2023-03-21T10:59:02.724Z,22.25
2023-03-21T11:01:37.565Z,24.70
2023-03-21T11:04:16.589Z,21.83
2023-03-21T11:06:51.378Z,22.88
2023-03-21T11:09:25.333Z,22.30
2023-03-21T11:12:03.411Z,27.20
2023-03-21T11:14:38.123Z,28.60
2023-03-21T11:17:16.843Z,27.85
2023-03-21T11:20:05.667Z,26.63
2023-03-21T11:22:44.138Z,27.98
2023-03-21T11:25:23.712Z,27.52
2023-03-21T11:30:25.873Z,24.60
2023-03-21T11:33:03.630Z,25.00
2023-03-21T11:35:36.749Z,24.70
2023-03-21T11:38:05.070Z,24.30
2023-03-21T11:40:34.561Z,27.77
2023-03-21T11:45:33.733Z,26.60
2023-03-21T11:48:08.174Z,23.92
2023-03-21T11:50:39.994Z,24.73
2023-03-21T11:53:40.052Z,36.42
2023-03-21T11:56:21.586Z,144.35
2023-03-21T11:59:06.942Z,30.67
2023-03-21T12:02:04.984Z,20.83
2023-03-21T12:04:56.742Z,19.63
2023-03-21T12:07:39.047Z,15.25
2023-03-21T12:10:37.070Z,16.23
2023-03-21T12:13:48.657Z,15.48
2023-03-21T12:16:33.411Z,17.25
2023-03-21T12:19:25.016Z,17.35
2023-03-21T12:22:00.690Z,16.45
2023-03-21T12:24:58.823Z,16.60
2023-03-21T12:28:31.673Z,15.27
2023-03-21T12:31:22.811Z,28.60
2023-03-21T12:33:58.372Z,20.13
2023-03-21T12:36:37.119Z,16.70
2023-03-21T12:39:27.057Z,15.00
2023-03-21T12:42:16.136Z,15.52
2023-03-21T12:45:03.992Z,16.30
2023-03-21T12:47:35.841Z,16.13
2023-03-21T12:50:19.363Z,16.45
2023-03-21T12:52:52.360Z,16.20
2023-03-21T12:55:27.905Z,18.83
2023-03-21T12:58:10.228Z,18.85
2023-03-21T13:00:56.559Z,20.33
2023-03-21T13:03:43.243Z,16.55
2023-03-21T13:06:14.871Z,19.38
2023-03-21T13:08:51.332Z,17.35
2023-03-21T13:11:23.440Z,18.10
2023-03-21T13:14:15.839Z,18.30
2023-03-21T13:16:56.039Z,17.38
2023-03-21T13:19:28.227Z,18.27
2023-03-21T13:22:09.085Z,19.08
2023-03-21T13:24:48.220Z,19.08
2023-03-21T13:27:30.489Z,20.63
2023-03-21T13:30:02.646Z,18.33
2023-03-21T13:32:50.524Z,20.42
2023-03-21T13:35:29.142Z,19.15
2023-03-21T13:38:03.870Z,25.40
2023-03-21T13:41:01.515Z,21.25
2023-03-21T13:43:31.504Z,19.70
2023-03-21T13:46:11.078Z,23.05
2023-03-21T13:51:29.387Z,20.40
2023-03-21T13:54:01.398Z,16.73
2023-03-21T13:56:30.638Z,18.08
2023-03-21T13:59:03.107Z,26.30
2023-03-21T14:01:41.751Z,18.67
2023-03-21T14:04:15.668Z,18.45
2023-03-21T14:06:56.181Z,19.35
2023-03-21T14:09:36.293Z,15.35
2023-03-21T14:12:08.081Z,18.25
2023-03-21T14:14:42.001Z,18.20
2023-03-21T14:17:28.728Z,20.38
2023-03-21T14:20:00.897Z,19.83
2023-03-21T14:22:29.742Z,20.25
2023-03-21T14:25:01.417Z,16.58
2023-03-21T14:27:34.574Z,17.98
2023-03-21T14:30:02.418Z,33.03
2023-03-21T14:32:30.940Z,22.75
2023-03-21T14:35:01.224Z,35.72
2023-03-21T14:37:30.414Z,40.08
2023-03-21T14:40:00.546Z,34.03
2023-03-21T14:42:28.961Z,43.22
2023-03-21T14:45:00.449Z,39.85
2023-03-21T14:47:30.223Z,40.35
2023-03-21T14:49:58.487Z,35.97
2023-03-21T14:52:31.101Z,32.60
2023-03-21T14:54:59.732Z,29.50
2023-03-21T14:57:31.031Z,22.38
2023-03-21T15:00:02.061Z,21.38
2023-03-21T15:02:29.402Z,19.52
2023-03-21T15:04:59.224Z,19.77
2023-03-21T15:07:32.735Z,18.45
2023-03-21T15:10:09.138Z,16.98
2023-03-21T15:12:36.538Z,16.30
2023-03-21T15:15:03.830Z,18.27
2023-03-21T15:17:31.200Z,21.08
2023-03-21T15:19:58.085Z,38.38
2023-03-21T15:22:34.869Z,33.00
2023-03-21T15:25:14.280Z,59.45
2023-03-21T15:27:42.973Z,51.63
2023-03-21T15:30:29.291Z,61.87
2023-03-21T15:32:59.409Z,61.03
2023-03-21T15:35:33.635Z,57.03
2023-03-21T15:38:00.996Z,30.92
2023-03-21T15:40:31.721Z,36.70
2023-03-21T15:43:16.259Z,34.85
2023-03-21T15:45:56.993Z,54.33
2023-03-21T15:48:34.943Z,38.72
2023-03-21T15:51:05.056Z,37.50
2023-03-21T15:53:37.757Z,39.78
2023-03-21T15:56:09.481Z,54.40
2023-03-21T15:58:45.474Z,61.53
2023-03-21T16:01:18.838Z,68.60
2023-03-21T16:03:56.890Z,104.85
2023-03-21T16:06:33.567Z,87.78
2023-03-21T16:09:14.364Z,54.58
2023-03-21T16:11:49.517Z,41.38
2023-03-21T16:14:18.754Z,51.65
2023-03-21T16:16:46.613Z,60.55
2023-03-21T16:19:14.541Z,42.87
2023-03-21T16:21:42.164Z,39.65
2023-03-21T16:24:11.695Z,41.35
2023-03-21T16:29:13.379Z,35.17
2023-03-21T16:31:40.579Z,44.10
2023-03-21T16:34:08.204Z,42.70
2023-03-21T16:36:38.207Z,32.70
2023-03-21T16:39:24.527Z,47.38
2023-03-21T16:41:51.633Z,69.88
2023-03-21T16:44:19.845Z,109.60
2023-03-21T16:46:47.356Z,58.33
2023-03-21T16:49:23.911Z,45.78
2023-03-21T16:51:51.521Z,44.25
2023-03-21T16:54:19.321Z,46.17
2023-03-21T16:56:51.625Z,39.45
2023-03-21T16:59:19.527Z,43.15
2023-03-21T17:01:48.279Z,47.47
2023-03-21T17:04:17.573Z,49.30
2023-03-21T17:06:50.256Z,43.58
2023-03-21T17:09:21.163Z,51.47
2023-03-21T17:11:49.428Z,57.67
2023-03-21T17:14:21.588Z,50.95
2023-03-21T17:16:48.959Z,49.38
2023-03-21T17:19:19.346Z,62.58
2023-03-21T17:21:47.108Z,81.13
2023-03-21T17:24:14.375Z,70.60
2023-03-21T17:26:41.352Z,74.63
2023-03-21T17:29:12.704Z,68.93
2023-03-21T17:31:39.823Z,73.63
2023-03-21T17:34:07.082Z,79.90
2023-03-21T17:36:37.749Z,69.57
2023-03-21T17:39:08.801Z,96.57
2023-03-21T17:41:35.854Z,175.63
2023-03-21T17:44:03.226Z,164.98
2023-03-21T17:46:36.886Z,172.70
2023-03-21T17:49:05.394Z,217.35
2023-03-21T17:51:33.217Z,229.32
2023-03-21T17:54:00.905Z,142.48
2023-03-21T17:56:31.183Z,110.05
2023-03-21T17:59:04.406Z,66.45
2023-03-21T18:01:32.280Z,42.05
2023-03-21T18:04:02.986Z,41.42
2023-03-21T18:06:29.929Z,41.30
2023-03-21T18:08:58.883Z,40.40
2023-03-21T18:11:26.895Z,38.78
2023-03-21T18:14:06.553Z,41.85
2023-03-21T18:16:41.232Z,39.37
2023-03-21T18:19:10.942Z,37.10
2023-03-21T18:21:40.676Z,33.67
2023-03-21T18:24:07.949Z,35.85
2023-03-21T18:26:35.363Z,33.50
2023-03-21T18:32:04.751Z,32.60
2023-03-21T18:34:33.400Z,34.28
2023-03-21T18:37:03.720Z,32.65
2023-03-21T18:39:33.252Z,37.45
2023-03-21T18:42:02.581Z,30.92
2023-03-21T18:44:31.478Z,33.67
2023-03-21T18:46:58.949Z,31.55
2023-03-21T18:52:13.326Z,30.33
2023-03-21T18:54:40.849Z,29.55
2023-03-21T18:59:56.905Z,36.42
2023-03-21T19:02:23.824Z,34.13
2023-03-21T19:04:51.313Z,29.70
2023-03-21T19:07:18.221Z,35.43
2023-03-21T19:10:13.908Z,32.72
2023-03-21T19:12:32.537Z,32.33
2023-03-21T19:14:59.681Z,31.58
2023-03-21T19:18:21.916Z,30.80
2023-03-21T19:20:16.577Z,31.35
2023-03-21T19:22:43.592Z,30.83
2023-03-21T19:25:11.692Z,32.23
2023-03-21T19:27:39.214Z,30.47
2023-03-21T19:30:14.328Z,32.97
2023-03-21T19:32:43.544Z,34.42
2023-03-21T19:35:11.734Z,37.93
2023-03-21T19:37:38.717Z,36.25
2023-03-21T19:40:07.104Z,40.88
2023-03-21T19:42:36.490Z,41.93
2023-03-21T19:45:05.510Z,37.43
2023-03-21T19:47:32.869Z,37.15
2023-03-21T19:52:47.204Z,43.27
2023-03-21T19:55:15.033Z,40.55
2023-03-21T19:57:41.967Z,41.40
2023-03-21T20:00:11.589Z,44.17
2023-03-21T20:02:38.888Z,42.63
2023-03-21T20:05:07.136Z,34.92
2023-03-21T20:07:34.149Z,37.65
2023-03-21T20:10:01.496Z,37.88
2023-03-21T20:12:28.808Z,44.20
2023-03-21T20:15:16.028Z,46.83
2023-03-21T20:17:43.534Z,47.20
2023-03-21T20:20:14.548Z,52.83
2023-03-21T20:23:05.643Z,56.53
2023-03-21T20:25:30.178Z,54.47
2023-03-21T20:28:14.474Z,61.60
2023-03-21T20:30:48.894Z,60.80
2023-03-21T20:33:16.058Z,62.03
2023-03-21T20:36:32.187Z,71.40
2023-03-21T20:38:31.189Z,66.47
2023-03-21T20:40:59.971Z,85.93
2023-03-21T20:44:14.334Z,86.63
2023-03-21T20:46:16.278Z,74.73
2023-03-21T20:48:43.280Z,74.68
2023-03-21T20:53:59.253Z,71.97
2023-03-21T20:56:26.577Z,83.30
2023-03-21T20:59:04.979Z,85.00
2023-03-21T21:01:40.647Z,97.82
2023-03-21T21:04:09.275Z,101.63
2023-03-21T21:06:36.640Z,122.63
2023-03-21T21:09:04.133Z,121.67
2023-03-21T21:14:18.295Z,115.17
2023-03-21T21:16:46.692Z,127.43
2023-03-21T21:19:14.911Z,133.00
2023-03-21T21:21:42.103Z,143.05
2023-03-21T21:24:09.231Z,125.83
2023-03-21T21:26:36.512Z,108.97
2023-03-21T21:29:03.517Z,114.00
2023-03-21T21:31:34.719Z,68.95
2023-03-21T21:34:03.204Z,55.33
2023-03-21T21:36:30.418Z,53.28
2023-03-21T21:38:57.333Z,48.58
2023-03-21T21:41:24.667Z,49.38
2023-03-21T21:43:52.217Z,50.47
2023-03-21T21:46:19.474Z,45.50
2023-03-21T21:48:46.450Z,45.80
2023-03-21T21:51:13.600Z,46.63
2023-03-21T21:53:40.989Z,49.58
2023-03-21T21:56:08.825Z,52.30
2023-03-21T21:58:38.968Z,49.60
2023-03-21T22:01:07.248Z,55.40
2023-03-21T22:03:41.023Z,50.20
2023-03-21T22:06:10.222Z,51.90
2023-03-21T22:08:37.480Z,52.08
2023-03-21T22:11:06.550Z,47.30
2023-03-21T22:13:33.569Z,54.35
2023-03-21T22:16:00.875Z,68.82
2023-03-21T22:18:27.831Z,64.03
2023-03-21T22:20:55.134Z,59.05
2023-03-21T22:23:22.099Z,61.58
2023-03-21T22:25:52.297Z,53.83
2023-03-21T22:28:22.127Z,55.73
2023-03-21T22:30:49.778Z,55.13
2023-03-21T22:33:16.693Z,53.28
2023-03-21T22:35:44.012Z,49.50
2023-03-21T22:38:11.008Z,50.92
2023-03-21T22:40:38.818Z,50.33
2023-03-21T22:43:06.187Z,68.17
2023-03-21T22:45:34.919Z,74.53
2023-03-21T22:48:02.346Z,71.22
2023-03-21T22:50:29.552Z,74.43
2023-03-21T22:52:56.409Z,91.47
2023-03-21T22:55:23.610Z,81.63
2023-03-21T22:57:50.469Z,83.47
2023-03-21T23:00:18.418Z,101.22
2023-03-21T23:02:45.450Z,92.75
2023-03-21T23:05:12.853Z,85.77
2023-03-21T23:07:39.844Z,69.20
2023-03-21T23:10:08.056Z,78.60
2023-03-21T23:12:36.416Z,75.30
2023-03-21T23:15:04.277Z,71.30
2023-03-21T23:17:33.844Z,59.97
2023-03-21T23:20:01.919Z,67.00
2023-03-21T23:22:32.926Z,64.90
2023-03-21T23:25:01.426Z,70.10
2023-03-21T23:27:28.583Z,69.57
2023-03-21T23:29:56.664Z,68.88
2023-03-21T23:32:24.006Z,66.60
2023-03-21T23:34:51.281Z,72.97
2023-03-21T23:37:18.318Z,69.57
2023-03-21T23:39:45.429Z,68.05
2023-03-21T23:42:12.413Z,66.80
2023-03-21T23:44:39.621Z,85.27
2023-03-21T23:47:06.504Z,90.27
2023-03-21T23:49:37.636Z,65.27
2023-03-21T23:52:05.591Z,69.27
2023-03-21T23:54:32.862Z,70.03
2023-03-21T23:56:59.727Z,72.15
2023-03-21T23:59:27.626Z,72.30
